Time;durP1;ratioP1;P1;durP2;ratioP2;P2;SDS_P1;SDS_P2;PMS_P1;PMS_P2;Temp;Humidity;BMP_temperature;BMP_pressure;BME280_temperature;BME280_humidity;BME280_pressure;Samples;Min_cycle;Max_cycle;Signal;HPM_P1;HPM_P2
2021/12/29 00:02:58;;;;;;;4.25;0.60;;;;;;;8.82;100.00;98314.31;8257241;28;20058;-79
2021/12/29 00:07:01;;;;;;;1.77;0.90;;;;;;;8.80;100.00;98316.50;8261696;28;20133;-79
2021/12/29 00:11:03;;;;;;;5.47;1.25;;;;;;;8.89;100.00;98320.34;8259892;28;20073;-78
2021/12/29 00:15:06;;;;;;;2.23;0.80;;;;;;;8.93;100.00;98326.13;8259558;28;20139;-79
2021/12/29 00:19:07;;;;;;;5.40;0.90;;;;;;;8.93;100.00;98335.19;8255789;28;20046;-78
2021/12/29 00:23:09;;;;;;;3.17;0.52;;;;;;;8.97;100.00;98350.00;8262555;28;20506;-78
2021/12/29 00:27:13;;;;;;;5.10;0.82;;;;;;;8.97;100.00;98352.75;8261282;28;20034;-78
2021/12/29 00:31:15;;;;;;;4.27;0.90;;;;;;;8.97;100.00;98369.25;8262789;28;20050;-79
2021/12/29 00:35:38;;;;;;;2.88;1.00;;;;;;;8.94;100.00;98369.78;8256695;28;20081;-78
2021/12/29 00:40:03;;;;;;;4.80;1.23;;;;;;;8.90;100.00;98383.25;8262083;28;20058;-79
2021/12/29 00:44:23;;;;;;;7.40;0.75;;;;;;;8.86;100.00;98384.06;8257911;28;20108;-79
2021/12/29 00:48:34;;;;;;;5.60;0.70;;;;;;;8.78;100.00;98395.63;8258545;28;20043;-78
2021/12/29 00:52:36;;;;;;;4.72;0.80;;;;;;;8.78;100.00;98401.91;8256543;28;20054;-78
2021/12/29 00:56:38;;;;;;;5.77;1.47;;;;;;;8.78;100.00;98409.34;8259757;28;20089;-79
2021/12/29 01:00:41;;;;;;;1.90;0.70;;;;;;;8.78;100.00;98412.09;8258837;28;20062;-78
2021/12/29 01:04:43;;;;;;;7.88;1.27;;;;;;;8.75;100.00;98420.88;8259278;28;20053;-79
2021/12/29 01:08:45;;;;;;;15.85;1.95;;;;;;;8.70;100.00;98440.09;8267352;28;20061;-79
2021/12/29 01:12:54;;;;;;;3.25;1.40;;;;;;;8.70;100.00;98448.31;8254245;28;20050;-80
2021/12/29 01:16:56;;;;;;;3.33;0.70;;;;;;;8.74;100.00;98452.16;8267164;28;20460;-78
2021/12/29 01:20:58;;;;;;;5.07;1.00;;;;;;;8.70;100.00;98471.09;8242102;28;20218;-79
2021/12/29 01:25:00;;;;;;;5.78;1.42;;;;;;;8.65;100.00;98477.41;8274514;28;20057;-78
2021/12/29 01:29:03;;;;;;;5.55;0.95;;;;;;;8.62;100.00;98499.09;8269230;28;20077;-79
2021/12/29 01:33:06;;;;;;;2.78;0.90;;;;;;;8.57;100.00;98518.31;8269675;28;20121;-78
2021/12/29 01:37:09;;;;;;;3.05;0.80;;;;;;;8.51;100.00;98539.41;8268419;28;20053;-79
2021/12/29 01:41:11;;;;;;;2.20;1.02;;;;;;;8.45;100.00;98559.72;8277334;28;20471;-80
2021/12/29 01:45:13;;;;;;;4.78;1.75;;;;;;;8.39;100.00;98572.56;8265269;28;20470;-80
2021/12/29 01:49:15;;;;;;;4.37;1.50;;;;;;;8.34;100.00;98569.75;8256146;28;20046;-82
2021/12/29 01:53:25;;;;;;;2.72;1.10;;;;;;;8.29;100.00;98566.97;8259457;28;20058;-81
2021/12/29 01:57:26;;;;;;;9.15;2.00;;;;;;;8.23;100.00;98576.28;8274340;28;20124;-81
2021/12/29 02:01:28;;;;;;;6.93;1.30;;;;;;;8.16;100.00;98575.69;8261553;28;20471;-81
2021/12/29 02:05:30;;;;;;;5.95;1.98;;;;;;;8.19;100.00;98575.16;8258242;28;20096;-81
2021/12/29 02:09:32;;;;;;;4.78;1.55;;;;;;;8.16;100.00;98576.50;8278876;28;20073;-81
2021/12/29 02:13:34;;;;;;;6.05;1.80;;;;;;;8.15;100.00;98590.47;8264548;28;20515;-81
2021/12/29 02:17:36;;;;;;;6.35;1.73;;;;;;;8.10;100.00;98599.53;8263967;28;20472;-80
2021/12/29 02:21:42;;;;;;;11.00;2.40;;;;;;;8.07;100.00;98602.78;8278527;28;20097;-80
2021/12/29 02:25:53;;;;;;;9.25;2.03;;;;;;;8.08;100.00;98604.44;8271199;28;20567;-80
2021/12/29 02:29:55;;;;;;;11.55;2.10;;;;;;;8.05;100.00;98613.19;8261053;28;20080;-81
2021/12/29 02:33:58;;;;;;;6.28;1.90;;;;;;;8.05;100.00;98626.91;8267984;28;20053;-80
2021/12/29 02:38:01;;;;;;;10.50;2.10;;;;;;;8.04;100.00;98625.25;8268044;28;20046;-81
2021/12/29 02:42:06;;;;;;;9.32;2.15;;;;;;;8.06;100.00;98641.44;8272088;28;20080;-80
2021/12/29 02:46:13;;;;;;;8.32;2.15;;;;;;;8.06;100.00;98650.53;8269336;28;20045;-82
2021/12/29 02:50:17;;;;;;;9.85;2.40;;;;;;;8.06;100.00;98663.41;8248898;28;20074;-81
2021/12/29 02:54:19;;;;;;;9.80;3.22;;;;;;;8.11;100.00;98672.50;8270872;28;20162;-80
2021/12/29 02:58:23;;;;;;;7.90;2.05;;;;;;;8.10;100.00;98654.41;8274780;28;20133;-81
2021/12/29 03:02:25;;;;;;;5.90;2.13;;;;;;;8.07;100.00;98648.59;8266172;28;20651;-81
2021/12/29 03:06:27;;;;;;;5.30;1.77;;;;;;;8.06;100.00;98671.63;8268540;28;20053;-80
2021/12/29 03:10:28;;;;;;;3.65;1.45;;;;;;;8.06;100.00;98685.34;8278923;28;20146;-80
2021/12/29 03:14:31;;;;;;;5.30;1.80;;;;;;;7.98;100.00;98687.50;8273587;28;20504;-80
2021/12/29 03:18:32;;;;;;;4.80;1.75;;;;;;;8.03;100.00;98683.13;8289336;28;20042;-79
2021/12/29 03:22:34;;;;;;;5.93;1.38;;;;;;;8.01;100.00;98686.13;8275220;28;20064;-80
2021/12/29 03:26:36;;;;;;;5.93;1.63;;;;;;;7.97;100.00;98695.97;8271474;28;20089;-81
2021/12/29 03:30:43;;;;;;;4.50;1.60;;;;;;;8.00;100.00;98689.94;8267576;28;20507;-80
2021/12/29 03:34:44;;;;;;;7.13;1.98;;;;;;;8.01;100.00;98701.78;8267674;28;20611;-81
2021/12/29 03:38:48;;;;;;;7.63;2.33;;;;;;;7.99;100.00;98718.47;8260795;28;20081;-80
2021/12/29 03:42:50;;;;;;;9.93;1.48;;;;;;;7.98;100.00;98749.75;8265569;28;20054;-79
2021/12/29 03:46:51;;;;;;;5.45;1.50;;;;;;;7.97;100.00;98759.06;8258464;28;20069;-82
2021/12/29 03:50:55;;;;;;;6.40;1.70;;;;;;;7.99;100.00;98735.75;8251491;28;20491;-82
2021/12/29 03:54:56;;;;;;;7.70;1.50;;;;;;;7.96;100.00;98733.53;8260593;28;20077;-81
2021/12/29 03:58:58;;;;;;;5.57;2.00;;;;;;;7.98;100.00;98725.91;8256527;28;20129;-81
2021/12/29 04:02:59;;;;;;;3.67;1.42;;;;;;;8.04;100.00;98732.25;8251441;28;20089;-80
2021/12/29 04:07:01;;;;;;;10.25;1.88;;;;;;;8.04;100.00;98745.97;8275654;28;20050;-82
2021/12/29 04:11:03;;;;;;;5.28;1.40;;;;;;;8.05;100.00;98752.28;8270574;28;20104;-81
2021/12/29 04:15:07;;;;;;;6.35;1.58;;;;;;;8.06;100.00;98763.00;8259931;28;20474;-80
2021/12/29 04:19:17;;;;;;;4.53;1.30;;;;;;;8.03;100.00;98766.28;8267930;28;20045;-80
2021/12/29 04:23:19;;;;;;;6.38;1.48;;;;;;;8.05;100.00;98766.81;8259778;28;20389;-79
2021/12/29 04:27:25;;;;;;;5.47;1.55;;;;;;;8.09;100.00;98781.72;8266161;28;20062;-79
2021/12/29 04:31:27;;;;;;;4.28;1.30;;;;;;;8.11;100.00;98789.66;8256181;28;20101;-80
2021/12/29 04:35:28;;;;;;;1.63;0.80;;;;;;;8.12;100.00;98799.53;8259667;28;20176;-80
2021/12/29 04:39:30;;;;;;;2.75;1.00;;;;;;;8.15;100.00;98801.75;8276915;28;20038;-79
2021/12/29 04:43:32;;;;;;;1.17;0.75;;;;;;;8.12;100.00;98808.63;8267056;28;20058;-80
2021/12/29 04:47:39;;;;;;;2.30;0.68;;;;;;;8.17;100.00;98825.13;8258558;28;20093;-79
2021/12/29 04:51:55;;;;;;;3.90;1.05;;;;;;;8.14;100.00;98819.31;8274660;28;20046;-79
2021/12/29 04:55:56;;;;;;;7.07;1.05;;;;;;;8.13;100.00;98831.41;8256428;28;20078;-79
2021/12/29 04:59:58;;;;;;;4.22;1.38;;;;;;;8.08;100.00;98823.09;8270908;28;20046;-80
2021/12/29 05:03:59;;;;;;;5.80;1.52;;;;;;;8.02;100.00;98829.63;8267638;28;20058;-79
2021/12/29 05:12:21;;;;;;;4.38;1.08;;;;;;;8.11;100.00;98866.50;8295253;28;20050;-79
2021/12/29 05:16:27;;;;;;;4.65;1.27;;;;;;;8.13;100.00;98861.59;8279499;28;20452;-80
2021/12/29 05:20:30;;;;;;;3.85;1.20;;;;;;;8.09;100.00;98869.50;8260039;28;20054;-79
2021/12/29 05:24:32;;;;;;;7.03;1.70;;;;;;;8.06;100.00;98872.75;8278767;28;20078;-79
2021/12/29 05:28:33;;;;;;;5.57;1.80;;;;;;;8.05;100.00;98878.50;8270485;28;20074;-79
2021/12/29 05:32:35;;;;;;;4.95;1.83;;;;;;;7.97;100.00;98879.75;8268760;28;20120;-79
2021/12/29 05:36:36;;;;;;;4.15;2.20;;;;;;;7.95;100.00;98879.22;8273964;28;20041;-80
2021/12/29 05:40:38;;;;;;;6.38;1.65;;;;;;;8.00;100.00;98876.50;8270113;28;20062;-80
2021/12/29 05:44:40;;;;;;;4.38;1.40;;;;;;;8.00;100.00;98890.22;8280488;28;20129;-80
2021/12/29 05:48:42;;;;;;;4.97;1.53;;;;;;;8.07;100.00;98888.13;8287660;28;20078;-79
2021/12/29 05:52:44;;;;;;;10.10;1.92;;;;;;;8.04;100.00;98885.91;8276402;28;20043;-79
2021/12/29 05:56:45;;;;;;;4.73;2.40;;;;;;;8.05;100.00;98883.97;8300615;28;20041;-79
2021/12/29 06:00:48;;;;;;;5.82;2.35;;;;;;;7.99;100.00;98881.16;8294557;28;20055;-80
2021/12/29 06:04:49;;;;;;;7.90;2.53;;;;;;;7.99;100.00;98889.41;8266996;28;20522;-81
2021/12/29 06:08:51;;;;;;;6.18;2.22;;;;;;;7.97;100.00;98897.06;8279726;28;20073;-82
2021/12/29 06:12:53;;;;;;;11.98;3.17;;;;;;;7.89;100.00;98900.25;8267736;28;20085;-81
2021/12/29 06:16:54;;;;;;;7.75;2.95;;;;;;;7.88;100.00;98903.25;8259546;28;20125;-81
2021/12/29 06:20:56;;;;;;;7.93;2.97;;;;;;;7.88;100.00;98901.34;8255254;28;20125;-79
2021/12/29 06:24:58;;;;;;;11.13;3.55;;;;;;;7.97;100.00;98904.44;8269277;28;20069;-82
2021/12/29 06:28:59;;;;;;;10.23;4.28;;;;;;;8.00;100.00;98914.91;8263655;28;20046;-82
2021/12/29 06:33:01;;;;;;;9.55;3.70;;;;;;;8.03;100.00;98911.69;8268731;28;20089;-81
2021/12/29 06:37:08;;;;;;;9.18;3.42;;;;;;;8.06;100.00;98910.31;8269728;28;20138;-81
2021/12/29 06:41:10;;;;;;;9.07;3.72;;;;;;;8.07;100.00;98926.53;8269492;28;20085;-81
2021/12/29 06:45:13;;;;;;;11.52;3.75;;;;;;;8.14;100.00;98931.84;8258458;28;20074;-81
2021/12/29 06:49:14;;;;;;;8.77;3.45;;;;;;;8.16;100.00;98941.47;8246283;28;20049;-79
2021/12/29 06:53:16;;;;;;;9.73;3.53;;;;;;;8.18;100.00;98954.97;8274012;28;20046;-82
2021/12/29 06:57:18;;;;;;;10.70;4.43;;;;;;;8.18;100.00;98966.75;8255534;28;20090;-81
2021/12/29 07:01:20;;;;;;;7.95;3.95;;;;;;;8.21;100.00;98976.41;8267606;28;20129;-81
2021/12/29 07:05:21;;;;;;;15.50;4.97;;;;;;;8.17;100.00;98978.81;8277429;28;20511;-82
2021/12/29 07:09:23;;;;;;;5.85;3.63;;;;;;;8.18;100.00;98980.47;8253866;28;20140;-80
2021/12/29 07:13:25;;;;;;;9.50;3.40;;;;;;;8.16;100.00;98990.03;8274307;28;20455;-81
2021/12/29 07:17:27;;;;;;;8.70;3.40;;;;;;;8.14;100.00;99001.25;8255019;28;20128;-81
2021/12/29 07:21:29;;;;;;;8.98;3.65;;;;;;;8.15;100.00;99010.31;8247848;28;20125;-81
2021/12/29 07:25:31;;;;;;;11.33;3.87;;;;;;;8.17;100.00;99010.91;8269258;28;20102;-80
2021/12/29 07:29:32;;;;;;;9.45;3.65;;;;;;;8.15;100.00;99022.16;8255842;28;20093;-82
2021/12/29 07:33:34;;;;;;;7.40;2.80;;;;;;;8.13;100.00;99024.31;8253277;28;20058;-81
2021/12/29 07:37:36;;;;;;;7.13;2.80;;;;;;;8.09;100.00;99034.13;8263111;28;20050;-81
2021/12/29 07:41:39;;;;;;;7.15;3.15;;;;;;;8.10;100.00;99037.72;8266860;28;20153;-81
2021/12/29 07:45:42;;;;;;;9.02;2.97;;;;;;;8.09;100.00;99039.63;8256835;28;20499;-81
2021/12/29 07:49:44;;;;;;;9.77;2.33;;;;;;;8.07;100.00;99044.53;8256106;28;20407;-81
2021/12/29 07:53:45;;;;;;;8.00;2.58;;;;;;;8.08;100.00;99040.69;8261658;28;20041;-81
2021/12/29 07:57:48;;;;;;;7.75;2.63;;;;;;;8.07;100.00;99055.50;8261855;28;20077;-79
2021/12/29 08:01:50;;;;;;;8.65;2.78;;;;;;;8.10;100.00;99060.50;8264811;28;20172;-80
2021/12/29 08:05:51;;;;;;;8.40;2.97;;;;;;;8.10;100.00;99056.91;8259052;28;20050;-79
2021/12/29 08:09:53;;;;;;;9.55;3.67;;;;;;;8.11;100.00;99055.81;8272877;28;20065;-80
2021/12/29 08:13:55;;;;;;;11.45;3.83;;;;;;;8.14;100.00;99069.88;8259493;28;20054;-81
2021/12/29 08:17:57;;;;;;;12.05;4.07;;;;;;;8.18;100.00;99062.81;8256579;28;20066;-80
2021/12/29 08:21:58;;;;;;;9.73;3.00;;;;;;;8.21;100.00;99069.72;8258364;28;20074;-81
2021/12/29 08:26:00;;;;;;;9.20;2.88;;;;;;;8.26;100.00;99063.44;8275822;28;20325;-79
2021/12/29 08:30:05;;;;;;;7.93;3.07;;;;;;;8.29;100.00;99054.72;8273514;28;20088;-81
2021/12/29 08:34:07;;;;;;;11.38;4.05;;;;;;;8.32;100.00;99054.19;8267077;28;20139;-80
2021/12/29 08:38:08;;;;;;;6.15;3.38;;;;;;;8.32;100.00;99076.16;8279591;28;20406;-80
2021/12/29 08:42:11;;;;;;;8.93;2.97;;;;;;;8.32;100.00;99076.97;8270689;28;20046;-79
2021/12/29 08:46:17;;;;;;;13.30;3.38;;;;;;;8.36;100.00;99082.81;8270785;28;20072;-77
2021/12/29 08:50:19;;;;;;;10.23;3.75;;;;;;;8.33;100.00;99069.56;8275048;28;20045;-78
2021/12/29 08:54:21;;;;;;;7.60;2.80;;;;;;;8.43;100.00;99081.56;8269280;28;20552;-79
2021/12/29 08:58:26;;;;;;;8.48;2.78;;;;;;;8.58;100.00;99085.63;8280718;28;20053;-79
2021/12/29 09:02:29;;;;;;;8.25;2.50;;;;;;;8.65;100.00;99087.06;8273266;28;20104;-79
2021/12/29 09:06:33;;;;;;;6.22;2.90;;;;;;;8.69;100.00;99095.66;8299244;28;20128;-81
2021/12/29 09:10:35;;;;;;;6.57;2.42;;;;;;;8.75;100.00;99099.28;8281622;28;20128;-79
2021/12/29 09:14:36;;;;;;;7.10;2.67;;;;;;;8.69;100.00;99109.38;8270563;28;20130;-78
2021/12/29 09:18:39;;;;;;;6.95;2.88;;;;;;;8.79;100.00;99103.19;8275670;28;20046;-79
2021/12/29 09:22:42;;;;;;;8.02;2.60;;;;;;;8.82;100.00;99102.66;8272800;28;20117;-78
2021/12/29 09:26:44;;;;;;;7.43;3.30;;;;;;;8.93;100.00;99107.22;8281679;28;20468;-77
2021/12/29 09:30:47;;;;;;;6.43;2.45;;;;;;;9.03;100.00;99104.56;8275701;28;20260;-79
2021/12/29 09:34:50;;;;;;;4.78;2.38;;;;;;;9.11;100.00;99101.38;8274200;28;20080;-78
2021/12/29 09:38:52;;;;;;;7.35;2.30;;;;;;;9.25;100.00;99103.72;8288973;28;20114;-78
2021/12/29 09:42:54;;;;;;;7.00;2.28;;;;;;;9.39;100.00;99106.88;8274872;28;20042;-78
2021/12/29 09:46:56;;;;;;;6.65;1.92;;;;;;;9.43;100.00;99116.25;8274101;28;20045;-79
2021/12/29 09:50:57;;;;;;;4.60;2.58;;;;;;;9.44;100.00;99112.44;8273220;28;20089;-77
2021/12/29 09:55:06;;;;;;;4.47;2.10;;;;;;;9.50;100.00;99103.16;8275137;28;20084;-79
2021/12/29 09:59:08;;;;;;;4.57;1.80;;;;;;;9.57;100.00;99103.75;8274699;28;20141;-78
2021/12/29 10:03:12;;;;;;;4.60;1.60;;;;;;;9.72;100.00;99103.06;8281165;28;20149;-76
2021/12/29 10:07:17;;;;;;;6.47;1.88;;;;;;;9.65;100.00;99105.22;8275431;28;20171;-78
2021/12/29 10:11:32;;;;;;;8.35;1.77;;;;;;;9.77;100.00;99112.19;8272901;28;20077;-78
2021/12/29 10:15:36;;;;;;;4.63;2.08;;;;;;;9.91;100.00;99115.34;8282484;28;20503;-79
2021/12/29 10:19:38;;;;;;;7.30;2.55;;;;;;;9.96;100.00;99106.28;8292592;28;20041;-78
2021/12/29 10:23:52;;;;;;;5.75;2.33;;;;;;;9.99;100.00;99109.38;8275299;28;20084;-79
2021/12/29 10:28:42;;;;;;;7.97;1.95;;;;;;;9.92;100.00;99113.44;8289967;28;20487;-77
2021/12/29 10:32:45;;;;;;;5.80;1.80;;;;;;;9.96;100.00;99120.88;8291497;28;20406;-78
2021/12/29 10:36:50;;;;;;;4.22;1.45;;;;;;;9.95;100.00;99124.75;8271664;28;20440;-79
2021/12/29 10:41:02;;;;;;;6.57;2.15;;;;;;;9.93;100.00;99123.34;8273554;28;20125;-78
2021/12/29 10:45:03;;;;;;;7.65;1.60;;;;;;;9.95;100.00;99123.91;8278437;28;20117;-79
2021/12/29 10:49:08;;;;;;;4.95;1.70;;;;;;;9.92;100.00;99127.19;8273287;28;20117;-79
2021/12/29 10:53:19;;;;;;;6.10;2.15;;;;;;;9.88;99.94;99120.56;8279394;28;20057;-78
2021/12/29 10:57:21;;;;;;;4.75;1.73;;;;;;;9.99;100.00;99114.88;8270826;28;20049;-78
2021/12/29 11:01:23;;;;;;;6.25;1.35;;;;;;;10.15;100.00;99120.50;8279565;28;20042;-79
2021/12/29 11:05:35;;;;;;;7.60;1.73;;;;;;;10.19;99.05;99114.19;8275417;28;20626;-78
2021/12/29 11:09:37;;;;;;;5.03;1.85;;;;;;;10.23;98.71;99120.00;8280589;28;20133;-79
2021/12/29 11:13:40;;;;;;;3.33;1.70;;;;;;;10.25;97.97;99112.31;8266671;28;20080;-78
2021/12/29 11:17:41;;;;;;;;;;;;;;;10.34;97.55;99119.00;8262680;28;20089;-78
2021/12/29 11:21:43;;;;;;;11.50;1.80;;;;;;;10.44;96.82;99121.84;8276212;28;20480;-80
2021/12/29 11:25:44;;;;;;;4.68;1.88;;;;;;;10.28;96.62;99106.28;8269765;28;20057;-78
2021/12/29 11:29:52;;;;;;;5.25;1.90;;;;;;;10.16;96.13;99113.91;8269865;28;20061;-78
2021/12/29 11:33:53;;;;;;;9.20;1.70;;;;;;;10.07;94.70;99118.22;8261366;28;20489;-78
2021/12/29 11:37:57;;;;;;;9.32;1.80;;;;;;;10.09;95.37;99102.28;8274009;28;20060;-78
2021/12/29 11:41:59;;;;;;;5.45;1.80;;;;;;;9.96;94.22;99100.78;8259791;28;20057;-79
2021/12/29 11:46:01;;;;;;;5.30;1.70;;;;;;;9.90;94.46;99099.91;8267092;28;20074;-80
2021/12/29 11:50:04;;;;;;;6.93;2.28;;;;;;;9.86;95.02;99112.56;8266294;28;20069;-80
2021/12/29 11:54:21;;;;;;;4.50;1.63;;;;;;;9.94;95.90;99103.00;8264547;28;20058;-81
2021/12/29 11:58:36;;;;;;;8.80;2.03;;;;;;;9.81;95.39;99109.75;8262679;28;20491;-79
2021/12/29 12:02:39;;;;;;;12.65;2.97;;;;;;;9.83;96.39;99099.31;8270286;28;20074;-79
2021/12/29 12:06:43;;;;;;;5.22;1.80;;;;;;;9.85;96.46;99104.59;8256696;28;20117;-81
2021/12/29 12:10:45;;;;;;;6.07;1.88;;;;;;;9.98;96.35;99104.94;8275827;28;20066;-79
2021/12/29 12:14:49;;;;;;;10.30;2.83;;;;;;;10.13;95.45;99109.75;8271744;28;20066;-80
2021/12/29 12:18:55;;;;;;;7.85;2.25;;;;;;;10.23;95.58;99120.84;8265739;28;20050;-80
2021/12/29 12:22:56;;;;;;;7.60;2.10;;;;;;;10.11;94.15;99131.19;8260981;28;20435;-79
2021/12/29 12:27:02;;;;;;;9.60;2.60;;;;;;;10.13;94.94;99131.75;8266752;28;20035;-80
2021/12/29 12:31:03;;;;;;;5.80;2.00;;;;;;;10.17;94.91;99129.31;8270534;28;20042;-81
2021/12/29 12:35:05;;;;;;;6.20;2.47;;;;;;;10.15;94.48;99117.75;8263491;28;20054;-80
2021/12/29 12:39:13;;;;;;;8.63;2.15;;;;;;;10.28;94.54;99120.06;8262705;28;20145;-79
2021/12/29 12:43:16;;;;;;;5.30;1.92;;;;;;;10.25;92.73;99139.84;8262254;28;20078;-78
2021/12/29 12:47:18;;;;;;;4.60;1.60;;;;;;;10.37;93.40;99137.75;8272274;28;20106;-79
2021/12/29 12:51:20;;;;;;;7.07;2.00;;;;;;;10.44;93.77;99130.09;8263714;28;20077;-80
2021/12/29 12:55:23;;;;;;;13.27;2.00;;;;;;;10.42;93.21;99121.25;8262373;28;20109;-78
2021/12/29 12:59:36;;;;;;;7.50;1.75;;;;;;;10.24;92.91;99097.72;8272199;28;20456;-80
2021/12/29 13:03:39;;;;;;;8.60;2.55;;;;;;;10.23;94.50;99095.22;8255787;28;20054;-80
2021/12/29 13:07:44;;;;;;;4.30;1.87;;;;;;;10.09;94.72;99094.03;8263411;28;20495;-78
2021/12/29 13:11:46;;;;;;;7.00;1.83;;;;;;;9.87;94.94;99094.94;8262971;28;20806;-80
2021/12/29 13:16:00;;;;;;;4.17;1.80;;;;;;;9.87;95.97;99107.88;8259944;28;20066;-80
2021/12/29 13:20:03;;;;;;;5.80;1.80;;;;;;;9.80;96.62;99127.38;8265878;28;20301;-80
2021/12/29 13:24:10;;;;;;;7.53;2.25;;;;;;;9.64;98.52;99125.53;8283038;28;20065;-78
2021/12/29 13:28:15;;;;;;;8.43;2.30;;;;;;;9.54;99.97;99129.84;8265505;28;20100;-80
2021/12/29 13:32:16;;;;;;;10.95;2.78;;;;;;;9.47;100.00;99123.75;8264046;28;20141;-80
2021/12/29 13:36:21;;;;;;;7.90;2.55;;;;;;;9.39;100.00;99112.38;8260549;28;20081;-80
2021/12/29 13:40:28;;;;;;;7.28;2.80;;;;;;;9.33;100.00;99117.00;8287820;28;20070;-79
2021/12/29 13:44:29;;;;;;;7.85;2.72;;;;;;;9.26;100.00;99116.38;8293981;28;20042;-78
2021/12/29 13:48:31;;;;;;;5.68;2.00;;;;;;;9.24;100.00;99119.38;8272415;28;20510;-80
2021/12/29 13:52:32;;;;;;;6.50;2.63;;;;;;;9.21;100.00;99132.81;8266246;28;20050;-80
2021/12/29 13:56:40;;;;;;;7.15;2.58;;;;;;;9.24;100.00;99143.28;8264324;28;20145;-79
2021/12/29 14:00:43;;;;;;;9.00;2.50;;;;;;;9.27;100.00;99142.78;8280570;28;20081;-79
2021/12/29 14:04:45;;;;;;;8.38;2.80;;;;;;;9.25;100.00;99140.31;8276392;28;20557;-80
2021/12/29 14:08:47;;;;;;;9.45;3.85;;;;;;;9.24;100.00;99146.88;8269819;28;20530;-80
2021/12/29 14:12:48;;;;;;;12.25;4.72;;;;;;;9.25;100.00;99164.19;8275355;28;20113;-80
2021/12/29 14:16:53;;;;;;;13.63;3.70;;;;;;;9.28;100.00;99149.91;8264203;28;20125;-79
2021/12/29 14:20:55;;;;;;;7.22;2.72;;;;;;;9.27;100.00;99159.28;8275487;28;20416;-79
2021/12/29 14:25:06;;;;;;;8.82;3.65;;;;;;;9.29;100.00;99140.59;8259609;28;20121;-78
2021/12/29 14:29:08;;;;;;;7.90;3.05;;;;;;;9.31;100.00;99128.28;8275253;28;20070;-78
2021/12/29 14:33:11;;;;;;;14.07;4.57;;;;;;;9.26;100.00;99135.63;8275522;28;20579;-79
2021/12/29 14:37:17;;;;;;;9.43;3.42;;;;;;;9.27;100.00;99118.84;8273258;28;20042;-78
2021/12/29 14:41:21;;;;;;;11.95;4.15;;;;;;;9.27;100.00;99113.34;8263068;28;20041;-78
2021/12/29 14:45:22;;;;;;;9.18;3.72;;;;;;;9.30;100.00;99106.50;8268765;28;20042;-78
2021/12/29 14:49:30;;;;;;;10.07;3.50;;;;;;;9.26;100.00;99117.22;8257086;28;20408;-78
2021/12/29 14:53:32;;;;;;;11.55;3.13;;;;;;;9.29;100.00;99126.88;8266148;28;20078;-78
2021/12/29 14:57:34;;;;;;;10.77;3.00;;;;;;;9.28;100.00;99133.44;8266020;28;20042;-78
2021/12/29 15:01:40;;;;;;;8.70;3.17;;;;;;;9.30;100.00;99131.25;8283899;28;20076;-78
2021/12/29 15:05:47;;;;;;;5.82;2.80;;;;;;;9.29;100.00;99124.94;8273950;28;20046;-79
2021/12/29 15:10:09;;;;;;;7.25;2.47;;;;;;;9.33;100.00;99130.75;8260422;28;20073;-79
2021/12/29 15:14:16;;;;;;;11.63;2.35;;;;;;;9.29;100.00;99124.94;8266995;28;20485;-78
2021/12/29 15:18:21;;;;;;;9.45;2.47;;;;;;;9.31;100.00;99116.41;8254944;28;20084;-79
2021/12/29 15:22:23;;;;;;;9.23;2.42;;;;;;;9.34;100.00;99113.19;8264107;28;20050;-78
2021/12/29 15:26:24;;;;;;;8.88;3.15;;;;;;;9.35;100.00;99114.81;8265175;28;20136;-79
2021/12/29 15:30:29;;;;;;;11.15;2.80;;;;;;;9.31;100.00;99114.53;8263374;28;20070;-78
2021/12/29 15:34:31;;;;;;;6.00;2.22;;;;;;;9.30;100.00;99112.00;8270917;28;20050;-79
2021/12/29 15:38:32;;;;;;;6.97;2.53;;;;;;;9.29;100.00;99110.38;8257015;28;20113;-78
2021/12/29 15:42:34;;;;;;;7.80;2.85;;;;;;;9.27;100.00;99109.78;8260128;28;20492;-79
2021/12/29 15:46:36;;;;;;;7.00;2.33;;;;;;;9.31;100.00;99108.16;8263406;28;20077;-79
2021/12/29 15:50:42;;;;;;;11.73;2.00;;;;;;;9.28;100.00;99106.78;8270480;28;20277;-79
2021/12/29 15:54:44;;;;;;;12.05;4.22;;;;;;;9.23;100.00;99097.66;8272432;28;20550;-79
2021/12/29 15:58:48;;;;;;;6.35;2.05;;;;;;;9.20;100.00;99087.19;8276053;28;20859;-80
2021/12/29 16:02:50;;;;;;;8.55;2.38;;;;;;;9.23;100.00;99092.16;8254719;28;20134;-79
2021/12/29 16:06:52;;;;;;;9.15;2.63;;;;;;;9.20;100.00;99109.16;8271525;28;20041;-79
2021/12/29 16:10:54;;;;;;;10.10;2.15;;;;;;;9.14;100.00;99100.03;8264789;28;20125;-79
2021/12/29 16:14:56;;;;;;;9.02;2.53;;;;;;;9.20;100.00;99092.69;8270171;28;20074;-79
2021/12/29 16:18:57;;;;;;;13.38;2.88;;;;;;;9.17;100.00;99069.28;8280934;28;20121;-79
2021/12/29 16:23:03;;;;;;;7.95;3.35;;;;;;;9.07;100.00;99074.66;8264087;28;20053;-81
2021/12/29 16:27:05;;;;;;;10.07;5.40;;;;;;;9.01;100.00;99078.44;8275367;28;20121;-81
2021/12/29 16:31:07;;;;;;;7.03;3.55;;;;;;;8.91;100.00;99070.91;8267756;28;20042;-81
2021/12/29 16:35:10;;;;;;;12.25;3.97;;;;;;;8.83;100.00;99071.34;8255318;28;20165;-81
2021/12/29 16:39:12;;;;;;;;;;;;;;;8.80;100.00;99067.19;8270507;28;20118;-80
2021/12/29 16:43:14;;;;;;;9.13;3.83;;;;;;;8.76;100.00;99059.75;8261557;28;19988;-81
2021/12/29 16:47:15;;;;;;;9.40;4.18;;;;;;;8.76;100.00;99054.25;8258386;28;20141;-79
2021/12/29 16:51:18;;;;;;;13.40;5.70;;;;;;;8.75;100.00;99080.91;8268403;28;20034;-80
2021/12/29 16:55:20;;;;;;;9.27;3.97;;;;;;;8.71;100.00;99068.72;8264951;28;20050;-80
2021/12/29 16:59:21;;;;;;;8.73;4.15;;;;;;;8.66;100.00;99076.94;8277830;28;20566;-78
2021/12/29 17:03:23;;;;;;;11.32;4.75;;;;;;;8.66;100.00;99060.47;8268756;28;20077;-78
2021/12/29 17:07:24;;;;;;;11.90;4.72;;;;;;;8.62;100.00;99068.34;8279301;28;20049;-80
2021/12/29 17:11:26;;;;;;;10.10;5.28;;;;;;;8.60;100.00;99072.47;8256000;28;20046;-81
2021/12/29 17:15:28;;;;;;;9.23;4.53;;;;;;;8.54;100.00;99060.59;8269176;28;20134;-79
2021/12/29 17:19:30;;;;;;;10.18;5.03;;;;;;;8.53;100.00;99060.81;8266625;28;20065;-80
2021/12/29 17:23:32;;;;;;;8.57;4.25;;;;;;;8.46;100.00;99060.19;8266069;28;20058;-79
2021/12/29 17:27:33;;;;;;;7.10;4.00;;;;;;;8.49;100.00;99087.13;8271484;28;20121;-80
2021/12/29 17:31:37;;;;;;;6.70;3.90;;;;;;;8.50;100.00;99095.09;8248349;28;20149;-77
2021/12/29 17:35:39;;;;;;;10.27;4.00;;;;;;;8.43;100.00;99092.56;8264487;28;20041;-80
2021/12/29 17:39:40;;;;;;;6.55;3.22;;;;;;;8.43;100.00;99073.34;8262635;28;20034;-79
2021/12/29 17:43:42;;;;;;;4.25;2.17;;;;;;;8.33;100.00;99073.19;8263113;28;20121;-80
2021/12/29 17:47:44;;;;;;;5.30;2.38;;;;;;;8.40;100.00;99073.84;8270689;28;20783;-80
2021/12/29 17:51:48;;;;;;;6.10;2.47;;;;;;;8.42;100.00;99059.88;8264183;28;20096;-80
2021/12/29 17:55:51;;;;;;;3.03;1.70;;;;;;;8.43;100.00;99053.28;8260964;28;20125;-79
2021/12/29 17:59:52;;;;;;;;;;;;;;;8.36;100.00;99058.13;8267992;28;20633;-82
2021/12/29 18:03:54;;;;;;;3.00;1.60;;;;;;;8.36;100.00;99069.09;8284777;28;20017;-81
2021/12/29 18:07:56;;;;;;;1.77;1.27;;;;;;;8.36;100.00;99071.84;8269455;28;20070;-81
2021/12/29 18:11:58;;;;;;;2.15;1.40;;;;;;;8.39;100.00;99061.22;8254211;28;20042;-80
2021/12/29 18:15:59;;;;;;;2.67;1.53;;;;;;;8.41;100.00;99078.25;8262575;28;20371;-82
2021/12/29 18:20:02;;;;;;;2.70;1.40;;;;;;;8.44;100.00;99069.50;8262070;28;20046;-82
2021/12/29 18:24:04;;;;;;;2.97;1.80;;;;;;;8.46;100.00;99058.28;8273772;28;20073;-80
2021/12/29 18:28:06;;;;;;;4.35;2.08;;;;;;;8.47;100.00;99062.66;8268434;28;20149;-80
2021/12/29 18:32:08;;;;;;;3.95;2.17;;;;;;;8.51;100.00;99058.34;8268610;28;20856;-81
2021/12/29 18:36:09;;;;;;;7.40;2.80;;;;;;;8.52;100.00;99076.47;8271017;28;20141;-80
2021/12/29 18:40:12;;;;;;;6.05;3.35;;;;;;;8.55;100.00;99069.66;8281220;28;20076;-81
2021/12/29 18:44:13;;;;;;;5.50;2.45;;;;;;;8.60;100.00;99066.97;8263578;28;20074;-79
2021/12/29 18:48:15;;;;;;;4.22;2.33;;;;;;;8.63;100.00;99074.69;8272968;28;20097;-81
2021/12/29 18:52:17;;;;;;;3.78;2.13;;;;;;;8.66;100.00;99069.53;8261751;28;20070;-80
2021/12/29 18:56:19;;;;;;;5.55;3.25;;;;;;;8.70;100.00;99069.00;8261653;28;20109;-82
2021/12/29 19:00:22;;;;;;;8.18;2.83;;;;;;;8.73;100.00;99069.31;8268376;28;20486;-79
2021/12/29 19:04:24;;;;;;;8.60;4.53;;;;;;;8.78;100.00;99074.06;8262695;28;20092;-82
2021/12/29 19:08:26;;;;;;;8.50;4.40;;;;;;;8.84;100.00;99064.78;8273518;28;20054;-81
2021/12/29 19:12:27;;;;;;;7.15;4.78;;;;;;;8.84;100.00;99045.56;8246823;28;20366;-82